Terminal Aerodrome Forecast
Issued by NWS

Home | Current Version | Previous Version | Text Only | Print | Product List | Glossary On
Versions: 1 2 3 4 5 6 7 8 9 10 11 12 13 14
000
FTUS44 KTSA 212332
TAFRVS
TAF
KRVS 212332Z 2200/2224 17011G18KT P6SM FEW045 FEW150
     FM220100 16010KT P6SM FEW150
     FM221400 19011KT P6SM FEW028
     FM221700 17011G18KT P6SM SCT050=

USA.gov is the U.S. government's official web portal to all federal, state and local government web resources and services.